Time;durP1;ratioP1;P1;durP2;ratioP2;P2;SDS_P1;SDS_P2;PMS_P1;PMS_P2;Temp;Humidity;BMP_temperature;BMP_pressure;BME280_temperature;BME280_humidity;BME280_pressure;Samples;Min_cycle;Max_cycle;Signal;HPM_P1;HPM_P2
2024/03/04 00:01:37;;;;;;;17.77;13.32;;;6.80;99.90;;;;;;5113681;28;20224;-63
2024/03/04 00:04:04;;;;;;;19.65;13.32;;;6.80;99.90;;;;;;5113787;28;20209;-63
2024/03/04 00:06:30;;;;;;;21.92;13.07;;;6.80;99.90;;;;;;5113738;28;20203;-63
2024/03/04 00:08:58;;;;;;;22.60;14.10;;;6.80;99.90;;;;;;5113368;28;20200;-63
2024/03/04 00:11:26;;;;;;;19.30;13.25;;;6.70;99.90;;;;;;5113267;28;20255;-62
2024/03/04 00:13:53;;;;;;;18.60;12.63;;;6.70;99.90;;;;;;5112863;28;20204;-63
2024/03/04 00:16:20;;;;;;;20.83;14.35;;;6.70;99.90;;;;;;5113272;28;20211;-63
2024/03/04 00:18:47;;;;;;;18.05;13.80;;;6.70;99.90;;;;;;5113079;28;20222;-62
2024/03/04 00:21:13;;;;;;;19.10;13.73;;;6.60;99.90;;;;;;5113233;28;20238;-63
2024/03/04 00:23:39;;;;;;;16.48;12.70;;;6.60;99.90;;;;;;5113609;28;20199;-62
2024/03/04 00:26:07;;;;;;;17.63;15.03;;;6.60;99.90;;;;;;5113436;28;20195;-63
2024/03/04 00:28:35;;;;;;;21.65;14.70;;;6.50;99.90;;;;;;5114547;28;20206;-62
2024/03/04 00:31:03;;;;;;;18.65;13.35;;;6.60;99.90;;;;;;5116933;28;20239;-63
2024/03/04 00:33:31;;;;;;;20.67;13.68;;;6.60;99.90;;;;;;5117384;28;20184;-62
2024/03/04 00:35:58;;;;;;;19.70;13.35;;;6.60;99.90;;;;;;5118116;28;20214;-61
2024/03/04 00:38:24;;;;;;;21.10;14.73;;;6.60;99.90;;;;;;5117038;28;20242;-63
2024/03/04 00:40:51;;;;;;;21.63;14.70;;;6.60;99.90;;;;;;5117145;28;20203;-62
2024/03/04 00:43:18;;;;;;;22.63;14.60;;;6.60;99.90;;;;;;5117212;28;20314;-63
2024/03/04 00:45:46;;;;;;;19.83;13.20;;;6.60;99.90;;;;;;5117210;28;20204;-63
2024/03/04 00:48:12;;;;;;;20.17;14.18;;;6.60;99.90;;;;;;5117942;28;20255;-62
2024/03/04 00:50:39;;;;;;;19.75;14.45;;;6.60;99.90;;;;;;5116983;28;20211;-62
2024/03/04 00:53:06;;;;;;;21.80;14.15;;;6.60;99.90;;;;;;5116678;28;20692;-63
2024/03/04 00:55:33;;;;;;;20.20;15.02;;;6.60;99.90;;;;;;5116722;27;20730;-61
2024/03/04 00:58:00;;;;;;;24.67;15.88;;;6.50;99.90;;;;;;5116832;28;20238;-63
2024/03/04 01:00:27;;;;;;;22.95;14.43;;;6.50;99.90;;;;;;5117083;28;20206;-62
2024/03/04 01:02:55;;;;;;;20.20;13.95;;;6.50;99.90;;;;;;5117808;28;20219;-62
2024/03/04 01:05:22;;;;;;;17.52;13.93;;;6.50;99.90;;;;;;5126507;28;20200;-63
2024/03/04 01:07:50;;;;;;;19.23;14.15;;;6.50;99.90;;;;;;5116951;28;20225;-63
2024/03/04 01:10:18;;;;;;;23.83;14.77;;;6.40;99.90;;;;;;5116867;28;20199;-62
2024/03/04 01:12:44;;;;;;;20.88;14.45;;;6.40;99.90;;;;;;5116733;28;20223;-62
2024/03/04 01:15:11;;;;;;;26.63;15.32;;;6.40;99.90;;;;;;5116555;28;20688;-63
2024/03/04 01:17:38;;;;;;;21.67;14.48;;;6.40;99.90;;;;;;5116574;28;20202;-63
2024/03/04 01:20:10;;;;;;;20.08;14.43;;;6.40;99.90;;;;;;5116160;28;20640;-62
2024/03/04 01:22:38;;;;;;;23.75;16.67;;;6.40;99.90;;;;;;5116474;28;20223;-62
2024/03/04 01:25:05;;;;;;;25.58;16.35;;;6.40;99.90;;;;;;5116463;28;20295;-62
2024/03/04 01:27:32;;;;;;;23.02;15.50;;;6.40;99.90;;;;;;5116384;28;20206;-63
2024/03/04 01:29:59;;;;;;;24.17;16.00;;;6.30;99.90;;;;;;5116664;28;20199;-62
2024/03/04 01:32:26;;;;;;;20.73;13.95;;;6.30;99.90;;;;;;5115981;28;20232;-62
2024/03/04 01:34:52;;;;;;;27.10;15.82;;;6.30;99.90;;;;;;5116173;28;20210;-62
2024/03/04 01:37:21;;;;;;;23.05;16.20;;;6.30;99.90;;;;;;5116107;28;20254;-62
2024/03/04 01:39:48;;;;;;;20.08;15.40;;;6.30;99.90;;;;;;5115559;28;20215;-62
2024/03/04 01:42:15;;;;;;;25.23;17.25;;;6.30;99.90;;;;;;5116154;28;20230;-61
2024/03/04 01:44:41;;;;;;;25.80;17.65;;;6.30;99.90;;;;;;5115863;28;20203;-63
2024/03/04 01:47:14;;;;;;;29.05;19.33;;;6.30;99.90;;;;;;5116284;28;20203;-63
2024/03/04 01:49:42;;;;;;;28.42;19.15;;;6.30;99.90;;;;;;5116491;28;20622;-62
2024/03/04 01:52:10;;;;;;;25.35;16.83;;;6.30;99.90;;;;;;5116101;28;20305;-63
2024/03/04 01:54:40;;;;;;;25.50;17.60;;;6.20;99.90;;;;;;5117243;28;20573;-63
2024/03/04 01:57:08;;;;;;;26.35;17.30;;;6.20;99.90;;;;;;5116932;28;20199;-62
2024/03/04 01:59:35;;;;;;;29.48;18.25;;;6.20;99.90;;;;;;5116081;28;20211;-62
2024/03/04 02:02:02;;;;;;;28.73;19.48;;;6.20;99.90;;;;;;5116216;28;20220;-62
2024/03/04 02:04:31;;;;;;;26.88;18.73;;;6.10;99.90;;;;;;5115986;28;20195;-61
2024/03/04 02:06:59;;;;;;;27.85;20.30;;;6.10;99.90;;;;;;5115609;28;20202;-62
2024/03/04 02:09:27;;;;;;;32.33;20.35;;;6.10;99.90;;;;;;5115617;28;20680;-63
2024/03/04 02:11:55;;;;;;;27.73;19.60;;;6.10;99.90;;;;;;5115684;28;20220;-62
2024/03/04 02:14:23;;;;;;;26.30;17.70;;;6.10;99.90;;;;;;5115917;28;20199;-63
2024/03/04 02:16:50;;;;;;;24.77;17.02;;;6.10;99.90;;;;;;5115761;28;20294;-62
2024/03/04 02:19:19;;;;;;;30.80;20.80;;;6.00;99.90;;;;;;5115127;28;20689;-61
2024/03/04 02:21:50;;;;;;;25.52;17.80;;;6.00;99.90;;;;;;5115425;28;20739;-63
2024/03/04 02:24:19;;;;;;;31.92;20.52;;;5.90;99.90;;;;;;5115382;28;20634;-63
2024/03/04 02:26:45;;;;;;;27.63;17.38;;;5.90;99.90;;;;;;5115427;28;20650;-61
2024/03/04 02:29:13;;;;;;;29.48;18.60;;;5.80;99.90;;;;;;5115359;28;20196;-63
2024/03/04 02:31:40;;;;;;;25.67;17.92;;;5.80;99.90;;;;;;5116077;28;20228;-63
2024/03/04 02:34:08;;;;;;;28.52;19.20;;;5.80;99.90;;;;;;5115663;28;20204;-62
2024/03/04 02:36:35;;;;;;;27.40;18.17;;;5.80;99.90;;;;;;5115998;28;20235;-62
2024/03/04 02:39:03;;;;;;;27.67;19.20;;;5.70;99.90;;;;;;5115412;28;20554;-61
2024/03/04 02:41:31;;;;;;;28.75;19.63;;;5.70;99.90;;;;;;5115159;28;20254;-62
2024/03/04 02:43:58;;;;;;;30.40;19.60;;;5.70;99.90;;;;;;5115258;28;20203;-62
2024/03/04 02:46:25;;;;;;;28.42;19.00;;;5.70;99.90;;;;;;5114651;28;20724;-62
2024/03/04 02:48:55;;;;;;;28.30;19.73;;;5.60;99.90;;;;;;5114920;28;20195;-63
2024/03/04 02:51:21;;;;;;;27.63;18.17;;;5.60;99.90;;;;;;5114130;28;20216;-63
2024/03/04 02:53:48;;;;;;;29.55;19.25;;;5.60;99.90;;;;;;5114547;28;20195;-61
2024/03/04 02:56:15;;;;;;;28.83;17.75;;;5.50;99.90;;;;;;5114650;28;20207;-60
2024/03/04 02:58:43;;;;;;;29.17;18.55;;;5.50;99.90;;;;;;5115021;28;20219;-62
2024/03/04 03:01:10;;;;;;;28.80;19.48;;;5.50;99.90;;;;;;5114299;28;20709;-63
2024/03/04 03:03:36;;;;;;;31.70;20.95;;;5.50;99.90;;;;;;5114824;28;20580;-64
2024/03/04 03:06:03;;;;;;;31.35;20.48;;;5.50;99.90;;;;;;5115166;28;20211;-61
2024/03/04 03:08:30;;;;;;;27.20;18.70;;;5.40;99.90;;;;;;5114570;27;20195;-62
2024/03/04 03:10:57;;;;;;;30.38;19.52;;;5.40;99.90;;;;;;5114243;28;20200;-62
2024/03/04 03:13:24;;;;;;;33.95;21.10;;;5.40;99.90;;;;;;5114492;28;20291;-62
2024/03/04 03:15:52;;;;;;;28.10;19.50;;;5.40;99.90;;;;;;5114088;28;20572;-62
2024/03/04 03:18:18;;;;;;;30.50;21.13;;;5.40;99.90;;;;;;5114282;28;20203;-62
2024/03/04 03:20:45;;;;;;;30.40;18.73;;;5.40;99.90;;;;;;5114381;28;20199;-62
2024/03/04 03:23:12;;;;;;;30.58;20.50;;;5.40;99.90;;;;;;5114433;28;20199;-61
2024/03/04 03:25:39;;;;;;;28.20;19.63;;;5.40;99.90;;;;;;5114512;28;20576;-61
2024/03/04 03:28:06;;;;;;;31.75;20.20;;;5.40;99.90;;;;;;5114697;28;20200;-63
2024/03/04 03:30:33;;;;;;;32.33;22.15;;;5.30;99.90;;;;;;5114035;28;20200;-62
2024/03/04 03:33:01;;;;;;;32.40;20.33;;;5.30;99.90;;;;;;5120752;22;20634;-62
2024/03/04 03:35:28;;;;;;;34.30;21.20;;;5.30;99.90;;;;;;5093425;28;20692;-61
2024/03/04 03:37:55;;;;;;;33.88;21.33;;;5.30;99.90;;;;;;5093660;28;20215;-62
2024/03/04 03:40:22;;;;;;;28.05;19.98;;;5.20;99.90;;;;;;5093272;28;20227;-62
2024/03/04 03:42:49;;;;;;;33.17;21.02;;;5.20;99.90;;;;;;5093439;28;20220;-62
2024/03/04 03:45:16;;;;;;;34.28;21.50;;;5.20;99.90;;;;;;5093556;28;20204;-61
2024/03/04 03:47:42;;;;;;;35.72;22.10;;;5.20;99.90;;;;;;5093478;28;20211;-61
2024/03/04 03:50:11;;;;;;;36.03;21.65;;;5.20;99.90;;;;;;5093279;28;20204;-62
2024/03/04 03:52:37;;;;;;;35.28;20.58;;;5.20;99.90;;;;;;5093225;28;20231;-62
2024/03/04 03:55:05;;;;;;;35.20;21.73;;;5.20;99.90;;;;;;5092984;28;20201;-61
2024/03/04 03:57:32;;;;;;;31.88;20.52;;;5.10;99.90;;;;;;5093231;28;20204;-63
2024/03/04 03:59:58;;;;;;;28.55;20.20;;;5.10;99.90;;;;;;5093095;28;20590;-62
2024/03/04 04:02:26;;;;;;;33.05;21.02;;;5.00;99.90;;;;;;5093084;28;20231;-62
2024/03/04 04:04:52;;;;;;;34.63;20.63;;;5.00;99.90;;;;;;5092913;28;20258;-62
2024/03/04 04:07:21;;;;;;;34.05;20.42;;;5.00;99.90;;;;;;5092975;28;20692;-60
2024/03/04 04:13:16;;;;;;;34.77;23.30;;;4.90;99.90;;;;;;5083467;27;1972995;-61
2024/03/04 04:15:43;;;;;;;40.67;23.08;;;5.00;99.90;;;;;;5151965;27;20198;-60
2024/03/04 04:18:09;;;;;;;35.15;23.20;;;5.00;99.90;;;;;;5152003;27;20195;-60
2024/03/04 04:20:36;;;;;;;38.92;24.45;;;5.00;99.90;;;;;;5151940;27;20202;-61
2024/03/04 04:23:03;;;;;;;37.15;23.33;;;5.00;99.90;;;;;;5152065;27;20229;-62
2024/03/04 04:28:02;;;;;;;34.97;22.20;;;4.90;99.90;;;;;;5069348;28;20228;-63
2024/03/04 04:30:30;;;;;;;34.70;22.65;;;4.90;99.90;;;;;;5070341;28;20201;-62
2024/03/04 04:32:57;;;;;;;37.22;23.67;;;4.90;99.90;;;;;;5069802;28;20226;-63
2024/03/04 04:35:24;;;;;;;35.95;23.30;;;4.90;99.90;;;;;;5069862;28;20543;-62
2024/03/04 04:37:51;;;;;;;41.08;23.75;;;4.90;99.90;;;;;;5091890;28;20227;-62
2024/03/04 04:40:19;;;;;;;38.35;23.17;;;4.90;99.90;;;;;;5090656;28;20201;-61
2024/03/04 04:42:46;;;;;;;38.33;24.83;;;4.90;99.90;;;;;;5090992;28;20613;-62
2024/03/04 04:45:12;;;;;;;36.25;24.42;;;4.90;99.90;;;;;;5092429;28;20209;-64
2024/03/04 04:47:41;;;;;;;40.08;23.98;;;4.90;99.90;;;;;;5091410;28;20220;-63
2024/03/04 04:50:08;;;;;;;45.42;26.13;;;4.90;99.90;;;;;;5091749;28;20208;-62
2024/03/04 04:52:34;;;;;;;39.88;23.38;;;4.90;99.90;;;;;;5090909;28;20667;-62
2024/03/04 04:55:01;;;;;;;34.67;22.35;;;4.90;99.90;;;;;;5091645;28;20204;-62
2024/03/04 04:57:28;;;;;;;36.60;22.38;;;4.80;99.90;;;;;;5092249;28;20298;-62
2024/03/04 04:59:55;;;;;;;40.00;25.85;;;4.80;99.90;;;;;;5092095;28;20197;-62
2024/03/04 05:02:21;;;;;;;37.67;22.98;;;4.80;99.90;;;;;;5093545;28;20200;-62
2024/03/04 05:04:49;;;;;;;37.90;22.52;;;4.80;99.90;;;;;;5095096;28;20215;-62
2024/03/04 05:07:16;;;;;;;33.85;21.45;;;4.80;99.90;;;;;;5094225;28;20227;-62
2024/03/04 05:09:43;;;;;;;33.97;22.17;;;4.70;99.90;;;;;;5101216;28;20219;-63
2024/03/04 05:12:10;;;;;;;39.13;23.27;;;4.70;99.90;;;;;;5102072;28;20217;-62
2024/03/04 05:14:37;;;;;;;39.78;23.13;;;4.70;99.90;;;;;;5102555;28;20223;-63
2024/03/04 05:17:04;;;;;;;34.67;22.52;;;4.70;99.90;;;;;;5093835;28;20792;-62
2024/03/04 05:19:36;;;;;;;37.03;23.05;;;4.70;99.90;;;;;;5089766;28;20573;-63
2024/03/04 05:22:05;;;;;;;36.38;23.23;;;4.70;99.90;;;;;;5091020;28;20207;-62
2024/03/04 05:24:32;;;;;;;36.97;22.45;;;4.70;99.90;;;;;;5079277;28;20215;-61
2024/03/04 05:26:59;;;;;;;38.70;23.92;;;4.70;99.90;;;;;;5076462;28;20228;-62
2024/03/04 05:29:25;;;;;;;39.05;24.30;;;4.70;99.90;;;;;;5076230;28;20201;-61
2024/03/04 05:31:53;;;;;;;40.90;25.67;;;4.70;99.90;;;;;;5075689;28;20228;-62
2024/03/04 05:34:20;;;;;;;38.03;24.13;;;4.70;99.90;;;;;;5075718;28;20204;-62
2024/03/04 05:36:46;;;;;;;43.55;25.33;;;4.70;99.90;;;;;;5075648;28;20228;-63
2024/03/04 05:39:18;;;;;;;44.23;24.70;;;4.70;99.90;;;;;;5075421;28;20654;-63
2024/03/04 05:41:45;;;;;;;39.90;25.83;;;4.70;99.90;;;;;;5075778;28;20481;-62
2024/03/04 05:44:11;;;;;;;42.58;25.95;;;4.70;99.90;;;;;;5075898;28;20205;-63
2024/03/04 05:46:38;;;;;;;44.15;26.75;;;4.80;99.90;;;;;;5075606;28;20235;-63
2024/03/04 05:49:06;;;;;;;43.33;26.27;;;4.80;99.90;;;;;;5075494;28;20204;-63
2024/03/04 05:51:33;;;;;;;48.05;29.38;;;4.80;99.90;;;;;;5075374;28;20276;-63
2024/03/04 05:54:00;;;;;;;46.97;27.73;;;4.80;99.90;;;;;;5075305;28;20204;-62
2024/03/04 05:56:28;;;;;;;47.90;28.75;;;4.80;99.90;;;;;;5075578;28;20303;-62
2024/03/04 05:58:55;;;;;;;47.47;29.63;;;4.90;99.90;;;;;;5076457;28;20283;-62
2024/03/04 06:01:22;;;;;;;52.42;29.52;;;4.90;99.90;;;;;;5076119;28;20255;-62
2024/03/04 06:03:49;;;;;;;45.05;28.55;;;5.00;99.90;;;;;;5076475;28;20205;-62
2024/03/04 06:06:15;;;;;;;49.20;30.63;;;5.00;99.90;;;;;;5076267;28;20225;-63
2024/03/04 06:08:43;;;;;;;51.20;30.70;;;5.00;99.90;;;;;;5076453;28;20209;-63
2024/03/04 06:11:10;;;;;;;50.50;30.35;;;5.10;99.90;;;;;;5078573;28;20201;-62
2024/03/04 06:13:38;;;;;;;48.40;29.75;;;5.10;99.90;;;;;;5077707;28;20741;-62
2024/03/04 06:16:04;;;;;;;58.97;31.15;;;5.10;99.90;;;;;;5075960;28;20225;-62
2024/03/04 06:18:31;;;;;;;50.97;27.67;;;5.20;99.90;;;;;;5075722;28;20212;-63
2024/03/04 06:20:59;;;;;;;56.55;30.05;;;5.20;99.90;;;;;;5076207;28;20656;-63
2024/03/04 06:23:26;;;;;;;54.70;29.65;;;5.20;99.90;;;;;;5076755;28;20287;-62
2024/03/04 06:25:53;;;;;;;43.42;28.50;;;5.20;99.90;;;;;;5076285;28;20229;-63
2024/03/04 06:28:20;;;;;;;45.47;28.10;;;5.30;99.90;;;;;;5076776;28;20626;-63
2024/03/04 06:30:49;;;;;;;47.55;29.60;;;5.20;99.90;;;;;;5076945;28;20216;-63
2024/03/04 06:33:16;;;;;;;48.40;28.58;;;5.20;99.90;;;;;;5077082;28;20228;-63
2024/03/04 06:35:42;;;;;;;43.70;27.88;;;5.20;99.90;;;;;;5075575;28;20705;-63
2024/03/04 06:38:08;;;;;;;45.88;27.95;;;5.30;99.90;;;;;;5076646;28;20201;-62
2024/03/04 06:40:35;;;;;;;49.60;29.27;;;5.30;99.90;;;;;;5075918;28;20203;-62
2024/03/04 06:43:02;;;;;;;46.42;27.90;;;5.30;99.90;;;;;;5076090;28;20562;-63
2024/03/04 06:45:28;;;;;;;47.95;30.50;;;5.30;99.90;;;;;;5075643;28;20201;-63
2024/03/04 06:48:01;;;;;;;41.00;26.67;;;5.40;99.90;;;;;;5080242;28;20189;-63
2024/03/04 06:50:28;;;;;;;39.83;26.50;;;5.40;99.90;;;;;;5085837;28;20252;-62
2024/03/04 06:52:56;;;;;;;44.80;27.08;;;5.40;99.90;;;;;;5088199;28;20227;-63
2024/03/04 06:55:22;;;;;;;43.22;28.73;;;5.40;99.90;;;;;;5088471;28;20201;-68
2024/03/04 06:57:49;;;;;;;48.38;27.77;;;5.40;99.90;;;;;;5086769;28;20220;-63
2024/03/04 07:00:17;;;;;;;52.17;29.70;;;5.50;99.90;;;;;;5088758;28;20254;-62
2024/03/04 07:02:44;;;;;;;70.43;28.70;;;5.50;99.90;;;;;;5088720;28;20200;-62
2024/03/04 07:05:12;;;;;;;62.55;29.00;;;5.40;99.90;;;;;;5089130;28;20269;-64
2024/03/04 07:07:38;;;;;;;50.33;28.88;;;5.40;99.90;;;;;;5087938;28;20221;-62
2024/03/04 07:10:07;;;;;;;52.55;28.13;;;5.40;99.90;;;;;;5087970;28;20212;-62
2024/03/04 07:12:36;;;;;;;49.30;26.98;;;5.40;99.90;;;;;;5086912;28;20220;-63
2024/03/04 07:15:02;;;;;;;55.50;29.45;;;5.50;99.90;;;;;;5086232;28;20223;-63
2024/03/04 07:17:30;;;;;;;51.45;28.50;;;5.50;99.90;;;;;;5087955;28;20224;-63
2024/03/04 07:19:57;;;;;;;50.05;28.02;;;5.50;99.90;;;;;;5087625;28;20232;-63
2024/03/04 07:22:25;;;;;;;61.17;30.25;;;5.60;99.90;;;;;;5085953;28;20531;-63
2024/03/04 07:24:52;;;;;;;116.63;30.40;;;5.70;99.90;;;;;;5085565;28;20215;-60
2024/03/04 07:27:18;;;;;;;76.28;25.05;;;5.80;99.90;;;;;;5085217;28;20252;-61
2024/03/04 07:29:45;;;;;;;138.07;29.27;;;5.90;99.90;;;;;;5085202;28;20212;-62
2024/03/04 07:32:12;;;;;;;50.50;26.73;;;5.90;99.90;;;;;;5084934;28;20224;-62
2024/03/04 07:34:38;;;;;;;55.88;26.65;;;6.00;99.90;;;;;;5084731;28;20208;-63
2024/03/04 07:37:05;;;;;;;119.03;25.10;;;6.10;99.90;;;;;;5083854;28;20554;-63
2024/03/04 07:39:34;;;;;;;69.38;24.52;;;6.20;99.90;;;;;;5075033;28;20211;-65
2024/03/04 07:42:01;;;;;;;54.55;25.45;;;6.30;99.90;;;;;;5075206;28;20212;-63
2024/03/04 07:44:28;;;;;;;48.78;24.65;;;6.30;99.90;;;;;;5074910;28;20208;-64
2024/03/04 07:46:55;;;;;;;38.53;24.45;;;6.30;99.90;;;;;;5074393;28;20217;-62
2024/03/04 07:49:21;;;;;;;43.25;24.75;;;6.30;99.90;;;;;;5079971;28;20223;-63
2024/03/04 07:51:48;;;;;;;45.17;26.13;;;6.40;99.90;;;;;;5077818;28;20201;-64
2024/03/04 07:54:15;;;;;;;44.70;25.33;;;6.50;99.90;;;;;;5076612;28;20221;-63
2024/03/04 07:56:43;;;;;;;43.67;25.08;;;6.60;99.90;;;;;;5076591;28;20214;-63
2024/03/04 07:59:09;;;;;;;38.80;25.80;;;6.70;99.90;;;;;;5075547;28;20201;-63
2024/03/04 08:01:45;;;;;;;38.92;25.55;;;6.80;99.90;;;;;;5075387;28;20200;-63
2024/03/04 08:04:12;;;;;;;41.40;24.25;;;6.90;99.90;;;;;;5074609;28;20199;-64
2024/03/04 08:06:39;;;;;;;36.78;24.75;;;6.90;99.90;;;;;;5074861;28;20231;-63
2024/03/04 08:09:05;;;;;;;40.03;24.83;;;7.00;99.90;;;;;;5073974;28;20684;-61
2024/03/04 08:11:32;;;;;;;37.80;23.95;;;7.10;99.90;;;;;;5074222;28;20220;-63
2024/03/04 08:14:00;;;;;;;38.40;23.33;;;7.20;99.90;;;;;;5075086;28;20216;-64
2024/03/04 08:16:27;;;;;;;46.22;28.00;;;7.20;99.90;;;;;;5075187;28;20224;-63
2024/03/04 08:18:54;;;;;;;47.72;26.17;;;7.30;99.90;;;;;;5074872;28;20205;-64
2024/03/04 08:21:20;;;;;;;41.90;26.90;;;7.40;99.90;;;;;;5074444;28;20201;-64
2024/03/04 08:23:47;;;;;;;44.72;26.88;;;7.40;99.90;;;;;;5075872;28;20212;-63
2024/03/04 08:26:14;;;;;;;45.17;27.33;;;7.50;99.90;;;;;;5077191;28;20595;-63
2024/03/04 08:28:41;;;;;;;44.70;25.42;;;7.60;99.90;;;;;;5077650;28;20565;-61
2024/03/04 08:31:09;;;;;;;44.38;27.42;;;7.70;99.90;;;;;;5075592;28;20200;-62
2024/03/04 08:33:36;;;;;;;42.35;27.20;;;7.70;99.90;;;;;;5079214;28;20225;-63
2024/03/04 08:36:05;;;;;;;42.78;28.88;;;7.80;99.90;;;;;;5082408;28;20725;-63
2024/03/04 08:38:33;;;;;;;45.40;27.58;;;7.80;99.90;;;;;;5084664;28;20200;-63
2024/03/04 08:41:02;;;;;;;42.50;26.38;;;7.90;99.90;;;;;;5087121;28;20264;-64
2024/03/04 08:43:29;;;;;;;44.92;27.35;;;8.00;99.90;;;;;;5085694;28;20201;-64
2024/03/04 08:45:56;;;;;;;48.47;27.27;;;8.10;99.90;;;;;;5083118;28;20710;-63
2024/03/04 08:48:25;;;;;;;47.67;27.48;;;8.20;99.90;;;;;;5084162;28;20204;-63
2024/03/04 08:50:52;;;;;;;42.90;26.90;;;8.30;99.90;;;;;;5084410;28;20212;-63
2024/03/04 08:53:18;;;;;;;50.30;27.15;;;8.40;99.90;;;;;;5081395;28;20217;-61
2024/03/04 08:55:45;;;;;;;40.30;26.47;;;8.50;99.90;;;;;;5082681;28;20219;-64
2024/03/04 08:58:12;;;;;;;43.13;27.30;;;8.50;99.90;;;;;;5084711;28;20450;-62
2024/03/04 09:00:39;;;;;;;50.58;28.88;;;8.50;99.90;;;;;;5085741;28;20447;-62
2024/03/04 09:03:07;;;;;;;48.28;29.27;;;8.50;99.90;;;;;;5085729;28;20204;-61
2024/03/04 09:05:35;;;;;;;47.00;29.77;;;8.60;99.90;;;;;;5085900;28;20201;-63
2024/03/04 09:08:03;;;;;;;44.20;26.47;;;8.80;99.90;;;;;;5085466;28;20929;-63
2024/03/04 09:10:30;;;;;;;39.93;26.67;;;9.00;99.90;;;;;;5085855;28;20463;-62
2024/03/04 09:12:58;;;;;;;35.33;24.80;;;9.20;99.90;;;;;;5085890;28;20501;-62
2024/03/04 09:15:24;;;;;;;40.10;25.90;;;9.30;99.90;;;;;;5089152;28;20447;-62
2024/03/04 09:17:51;;;;;;;40.77;26.17;;;9.30;99.90;;;;;;5089691;28;20462;-62
2024/03/04 09:20:18;;;;;;;43.10;25.60;;;9.40;99.90;;;;;;5089807;28;20439;-62
2024/03/04 09:22:46;;;;;;;49.90;25.77;;;9.50;99.90;;;;;;5089254;28;20435;-63
2024/03/04 09:25:13;;;;;;;41.20;26.33;;;9.50;99.90;;;;;;5086949;28;20435;-62
2024/03/04 09:27:43;;;;;;;41.70;26.40;;;9.50;99.90;;;;;;5086168;28;20471;-62
2024/03/04 09:30:10;;;;;;;38.70;25.40;;;9.50;99.90;;;;;;5088613;28;20447;-64
2024/03/04 09:32:37;;;;;;;40.33;26.50;;;9.50;99.90;;;;;;5087677;28;20442;-63
2024/03/04 09:35:05;;;;;;;49.40;27.07;;;9.50;99.90;;;;;;5086089;28;20449;-61
2024/03/04 09:37:31;;;;;;;39.90;26.60;;;9.50;99.90;;;;;;5088133;28;20496;-62
2024/03/04 09:39:59;;;;;;;44.07;26.77;;;9.60;99.90;;;;;;5089103;28;20435;-62
2024/03/04 09:42:30;;;;;;;46.50;26.87;;;9.70;99.90;;;;;;5085675;28;20439;-63
2024/03/04 09:44:58;;;;;;;42.50;26.03;;;9.70;99.90;;;;;;5083566;28;20454;-61
2024/03/04 09:47:26;;;;;;;43.67;27.53;;;9.70;99.90;;;;;;5082227;28;20992;-62
2024/03/04 09:49:53;;;;;;;59.33;28.00;;;9.70;99.90;;;;;;5079642;28;20947;-62
2024/03/04 09:52:20;;;;;;;44.63;26.50;;;9.70;99.90;;;;;;5079924;28;20447;-61
2024/03/04 09:54:49;;;;;;;47.13;28.50;;;9.80;99.90;;;;;;5079633;28;20483;-62
2024/03/04 09:57:17;;;;;;;44.03;27.30;;;9.80;99.90;;;;;;5080496;28;20573;-63
2024/03/04 09:59:45;;;;;;;48.17;27.33;;;9.90;99.90;;;;;;5079345;28;20444;-62
2024/03/04 10:02:13;;;;;;;44.87;28.47;;;9.90;99.90;;;;;;5076454;28;20447;-62
2024/03/04 10:04:41;;;;;;;52.07;27.00;;;9.90;99.90;;;;;;5076771;28;20435;-63
2024/03/04 10:07:07;;;;;;;45.07;25.97;;;9.90;99.90;;;;;;5077440;28;20459;-63
2024/03/04 10:09:35;;;;;;;39.83;25.33;;;9.90;99.90;;;;;;5077093;28;20440;-62
2024/03/04 10:12:03;;;;;;;37.90;26.50;;;9.90;99.90;;;;;;5076823;28;20538;-62
2024/03/04 10:14:32;;;;;;;39.37;25.10;;;10.00;99.90;;;;;;5076851;28;20475;-62
2024/03/04 10:16:58;;;;;;;43.33;25.83;;;10.00;99.90;;;;;;5077823;28;20459;-63
2024/03/04 10:19:25;;;;;;;41.40;26.60;;;10.00;99.90;;;;;;5076341;28;20984;-64
2024/03/04 10:21:52;;;;;;;40.50;26.60;;;10.10;99.90;;;;;;5077513;28;20450;-62
2024/03/04 10:24:18;;;;;;;40.10;26.20;;;10.10;99.90;;;;;;5076382;28;20477;-62
2024/03/04 10:26:46;;;;;;;42.63;27.90;;;10.20;99.90;;;;;;5076447;28;20475;-63
2024/03/04 10:29:15;;;;;;;39.10;25.37;;;10.20;99.90;;;;;;5076891;28;20558;-62
2024/03/04 10:31:53;;;;;;;40.30;25.77;;;10.20;99.90;;;;;;5076713;28;20454;-62
2024/03/04 10:34:20;;;;;;;43.63;27.20;;;10.20;99.90;;;;;;5076388;28;20505;-61
2024/03/04 10:36:48;;;;;;;46.73;28.90;;;10.20;99.90;;;;;;5076404;28;20467;-63
2024/03/04 10:39:16;;;;;;;45.33;29.87;;;10.20;99.90;;;;;;5076007;28;20451;-63
2024/03/04 10:41:43;;;;;;;45.90;29.50;;;10.10;99.90;;;;;;5076280;28;20439;-62
2024/03/04 10:44:10;;;;;;;47.70;29.40;;;10.00;99.90;;;;;;5077315;28;20856;-61
2024/03/04 10:46:39;;;;;;;52.17;30.80;;;10.00;99.90;;;;;;5078250;28;20972;-62
2024/03/04 10:49:08;;;;;;;52.50;27.63;;;9.90;99.90;;;;;;5077515;28;20533;-62
2024/03/04 10:51:34;;;;;;;53.77;31.50;;;9.90;99.90;;;;;;5076973;28;20534;-63
2024/03/04 10:54:03;;;;;;;48.27;29.47;;;9.90;99.90;;;;;;5077075;28;20512;-59
2024/03/04 10:56:32;;;;;;;49.43;30.27;;;10.00;99.90;;;;;;5076311;28;20891;-63
2024/03/04 10:59:02;;;;;;;54.10;31.50;;;9.90;99.90;;;;;;5076806;28;20440;-61
2024/03/04 11:01:31;;;;;;;56.13;32.80;;;9.80;99.90;;;;;;5077289;28;20932;-62
2024/03/04 11:04:04;;;;;;;51.60;31.60;;;9.80;99.90;;;;;;5079896;28;20443;-63
2024/03/04 11:06:34;;;;;;;51.87;30.60;;;9.70;99.90;;;;;;5075892;28;20569;-63
2024/03/04 11:09:06;;;;;;;49.40;33.20;;;9.70;99.90;;;;;;5076959;28;20419;-62
2024/03/04 11:11:36;;;;;;;47.83;30.70;;;9.80;99.90;;;;;;5076660;28;20428;-63
2024/03/04 11:14:05;;;;;;;48.60;30.47;;;9.90;99.90;;;;;;5075689;28;20977;-62
2024/03/04 11:16:41;;;;;;;42.73;29.63;;;9.90;99.90;;;;;;5079989;28;20493;-63
2024/03/04 11:19:26;;;;;;;45.97;29.83;;;9.90;99.90;;;;;;5084318;28;20434;-62
2024/03/04 11:21:57;;;;;;;46.67;32.33;;;10.00;99.90;;;;;;5078577;28;20431;-63
2024/03/04 11:24:24;;;;;;;53.60;32.67;;;10.10;99.90;;;;;;5075767;28;20420;-63
2024/03/04 11:26:52;;;;;;;53.10;31.80;;;10.20;99.90;;;;;;5075040;28;20471;-62
2024/03/04 11:29:20;;;;;;;47.30;30.73;;;10.30;99.90;;;;;;5075270;28;20439;-63
2024/03/04 11:31:54;;;;;;;48.60;31.20;;;10.40;99.90;;;;;;5075950;28;20443;-64
2024/03/04 11:34:20;;;;;;;54.20;30.93;;;10.50;99.90;;;;;;5075331;28;20856;-64
2024/03/04 11:36:49;;;;;;;37.80;28.50;;;10.50;99.90;;;;;;5075948;28;20463;-62
2024/03/04 11:39:20;;;;;;;37.20;26.60;;;10.60;99.90;;;;;;5074285;28;20450;-63
2024/03/04 11:41:49;;;;;;;40.37;27.60;;;10.60;99.90;;;;;;5074931;28;20545;-63
2024/03/04 11:44:19;;;;;;;39.40;29.70;;;10.70;99.90;;;;;;5074696;28;20439;-61
2024/03/04 11:46:46;;;;;;;42.67;29.03;;;10.60;99.90;;;;;;5074350;28;20465;-62
2024/03/04 11:49:23;;;;;;;47.63;31.80;;;10.70;99.90;;;;;;5074994;28;20531;-63
2024/03/04 11:52:05;;;;;;;46.17;29.93;;;10.70;99.90;;;;;;5074599;28;20952;-62
2024/03/04 11:54:46;;;;;;;42.23;29.57;;;10.80;99.90;;;;;;5074414;28;20866;-63
2024/03/04 11:57:14;;;;;;;43.73;27.50;;;10.80;99.90;;;;;;5074444;28;20548;-62
2024/03/04 11:59:42;;;;;;;50.53;32.23;;;10.80;99.90;;;;;;5074477;28;20789;-63
2024/03/04 12:02:09;;;;;;;61.23;36.53;;;10.80;99.90;;;;;;5074412;28;20443;-63
2024/03/04 12:04:36;;;;;;;49.50;32.67;;;10.80;99.90;;;;;;5074666;28;21002;-61
2024/03/04 12:07:04;;;;;;;49.73;33.07;;;10.80;99.90;;;;;;5074997;28;20459;-63
2024/03/04 12:09:33;;;;;;;55.17;34.87;;;10.80;99.90;;;;;;5074405;28;20439;-65
2024/03/04 12:12:03;;;;;;;45.90;29.37;;;10.80;99.90;;;;;;5074570;28;20993;-63
2024/03/04 12:14:30;;;;;;;48.13;31.30;;;10.80;99.90;;;;;;5074790;28;20471;-62
2024/03/04 12:16:57;;;;;;;45.43;29.90;;;10.80;99.90;;;;;;5074755;28;20456;-61
2024/03/04 12:19:24;;;;;;;39.73;30.17;;;10.80;99.90;;;;;;5074924;28;20446;-62
2024/03/04 12:21:51;;;;;;;40.73;30.63;;;10.80;99.90;;;;;;5074160;28;20500;-64
2024/03/04 12:24:19;;;;;;;48.77;34.33;;;10.80;99.90;;;;;;5075027;28;20439;-63
2024/03/04 12:26:49;;;;;;;50.37;31.47;;;10.90;99.90;;;;;;5076076;28;20903;-63
2024/03/04 12:29:21;;;;;;;45.87;30.67;;;10.90;99.90;;;;;;5076577;28;20423;-63
2024/03/04 12:31:50;;;;;;;46.30;32.20;;;11.00;99.90;;;;;;5076682;28;20447;-63
2024/03/04 12:34:17;;;;;;;44.53;29.93;;;11.00;99.90;;;;;;5079523;28;20486;-63
2024/03/04 12:36:44;;;;;;;48.57;30.90;;;11.10;99.90;;;;;;5080966;28;20474;-65
2024/03/04 12:39:14;;;;;;;49.70;31.93;;;11.10;99.90;;;;;;5080533;28;20447;-63
2024/03/04 12:41:40;;;;;;;43.63;31.57;;;11.10;99.90;;;;;;5079158;28;20480;-63
2024/03/04 12:44:07;;;;;;;45.30;30.07;;;11.00;99.90;;;;;;5083088;28;20435;-63